createdAt,value
2023-11-24T00:02:17.137Z,100.00
2023-11-24T00:07:28.314Z,100.00
2023-11-24T00:12:33.360Z,100.00
2023-11-24T00:17:39.307Z,100.00
2023-11-24T00:22:45.474Z,100.00
2023-11-24T00:27:51.050Z,100.00
2023-11-24T00:32:55.830Z,100.00
2023-11-24T00:38:01.357Z,100.00
2023-11-24T00:43:07.269Z,99.63
2023-11-24T00:48:11.809Z,98.87
2023-11-24T00:53:17.761Z,99.06
2023-11-24T00:58:21.887Z,100.00
2023-11-24T01:03:27.619Z,100.00
2023-11-24T01:08:33.311Z,99.43
2023-11-24T01:13:40.188Z,98.80
2023-11-24T01:18:44.573Z,98.40
2023-11-24T01:23:52.587Z,100.00
2023-11-24T01:28:57.893Z,100.00
2023-11-24T01:34:02.401Z,100.00
2023-11-24T01:39:11.140Z,100.00
2023-11-24T01:44:15.297Z,100.00
2023-11-24T01:49:19.459Z,100.00
2023-11-24T01:54:27.742Z,100.00
2023-11-24T01:59:32.023Z,100.00
2023-11-24T02:04:36.078Z,100.00
2023-11-24T02:09:43.540Z,100.00
2023-11-24T02:14:47.820Z,100.00
2023-11-24T02:19:53.668Z,100.00
2023-11-24T02:24:59.501Z,100.00
2023-11-24T02:30:04.913Z,100.00
2023-11-24T02:35:11.227Z,99.28
2023-11-24T02:40:17.412Z,100.00
2023-11-24T02:45:21.914Z,98.86
2023-11-24T02:50:26.856Z,98.13
2023-11-24T02:55:32.302Z,99.73
2023-11-24T03:00:37.371Z,99.62
2023-11-24T03:05:41.608Z,100.00
2023-11-24T03:10:47.228Z,98.39
2023-11-24T03:15:51.362Z,100.00
2023-11-24T03:20:55.445Z,98.13
2023-11-24T03:26:03.758Z,100.00
2023-11-24T03:31:08.145Z,98.97
2023-11-24T03:36:31.179Z,98.75
2023-11-24T03:41:37.516Z,98.72
2023-11-24T03:46:42.076Z,97.47
2023-11-24T03:51:46.125Z,97.70
2023-11-24T03:56:51.660Z,97.87
2023-11-24T04:01:55.801Z,95.81
2023-11-24T04:07:01.452Z,97.03
2023-11-24T04:12:07.468Z,98.28
2023-11-24T04:17:12.025Z,97.78
2023-11-24T04:22:16.984Z,93.58
2023-11-24T04:27:22.628Z,94.86
2023-11-24T04:32:26.878Z,96.41
2023-11-24T04:37:30.836Z,98.60
2023-11-24T04:42:36.325Z,98.40
2023-11-24T04:47:41.240Z,98.33
2023-11-24T04:52:45.349Z,96.89
2023-11-24T04:57:52.003Z,97.00
2023-11-24T05:02:55.997Z,98.21
2023-11-24T05:08:00.742Z,97.93
2023-11-24T05:13:06.357Z,96.08
2023-11-24T05:18:10.373Z,97.78
2023-11-24T05:23:15.635Z,98.42
2023-11-24T05:28:21.098Z,97.00
2023-11-24T05:33:25.214Z,99.23
2023-11-24T05:38:29.446Z,97.41
2023-11-24T05:43:35.380Z,97.40
2023-11-24T05:48:39.975Z,98.46
2023-11-24T05:53:44.254Z,98.03
2023-11-24T05:58:52.556Z,98.07
2023-11-24T06:03:56.694Z,98.94
2023-11-24T06:09:01.116Z,97.14
2023-11-24T06:14:06.646Z,97.71
2023-11-24T06:19:10.797Z,96.75
2023-11-24T06:24:14.908Z,98.94
2023-11-24T06:29:23.124Z,97.38
2023-11-24T06:34:28.839Z,96.88
2023-11-24T06:39:33.371Z,97.62
2023-11-24T06:44:41.304Z,95.27
2023-11-24T06:49:45.611Z,93.09
2023-11-24T06:54:50.152Z,87.84
2023-11-24T06:59:56.972Z,80.34
2023-11-24T07:05:01.306Z,77.11
2023-11-24T07:10:06.916Z,75.08
2023-11-24T07:15:13.828Z,71.10
2023-11-24T07:20:19.253Z,68.71
2023-11-24T07:25:23.444Z,66.52
2023-11-24T07:30:32.388Z,66.44
2023-11-24T07:35:36.555Z,65.53
2023-11-24T07:40:40.825Z,65.56
2023-11-24T07:45:52.553Z,62.19
2023-11-24T07:50:56.626Z,60.03
2023-11-24T07:56:01.198Z,61.16
2023-11-24T08:01:08.922Z,61.78
2023-11-24T08:06:16.175Z,65.96
2023-11-24T08:11:20.882Z,66.94
2023-11-24T08:16:27.801Z,67.50
2023-11-24T08:21:35.774Z,70.84
2023-11-24T08:26:40.667Z,75.06
2023-11-24T08:31:51.440Z,78.36
2023-11-24T08:36:56.351Z,77.46
2023-11-24T08:42:00.647Z,77.59
2023-11-24T08:47:07.498Z,79.28
2023-11-24T08:52:12.064Z,81.21
2023-11-24T08:57:17.115Z,82.66
2023-11-24T09:02:23.514Z,82.78
2023-11-24T09:07:31.452Z,80.97
2023-11-24T09:12:36.057Z,80.52
2023-11-24T09:17:41.870Z,78.74
2023-11-24T09:22:46.618Z,79.10
2023-11-24T09:27:50.721Z,77.80
2023-11-24T09:32:56.634Z,77.34
2023-11-24T09:38:01.037Z,79.62
2023-11-24T09:43:06.455Z,79.44
2023-11-24T09:48:16.092Z,79.57
2023-11-24T09:53:20.828Z,77.48
2023-11-24T09:58:27.113Z,75.80
2023-11-24T10:03:32.949Z,75.38
2023-11-24T10:08:38.097Z,75.63
2023-11-24T10:13:43.094Z,74.01
2023-11-24T10:18:48.611Z,73.76
2023-11-24T10:23:52.718Z,76.47
2023-11-24T10:28:58.817Z,77.76
2023-11-24T10:34:05.649Z,76.36
2023-11-24T10:39:13.411Z,74.51
2023-11-24T10:44:20.540Z,74.74
2023-11-24T10:49:35.969Z,75.24
2023-11-24T10:54:46.413Z,75.60
2023-11-24T10:59:52.456Z,74.80
2023-11-24T11:05:08.508Z,75.17
2023-11-24T11:10:15.263Z,74.67
2023-11-24T11:15:26.442Z,76.15
2023-11-24T11:20:38.713Z,74.02
2023-11-24T11:25:46.008Z,75.40
2023-11-24T11:30:51.457Z,75.23
2023-11-24T11:36:07.069Z,73.58
2023-11-24T11:41:11.726Z,76.81
2023-11-24T11:46:16.745Z,76.72
2023-11-24T11:51:23.671Z,76.18
2023-11-24T11:56:28.315Z,75.51
2023-11-24T12:01:36.862Z,75.57
2023-11-24T12:06:42.554Z,74.94
2023-11-24T12:11:48.588Z,74.23
2023-11-24T12:16:55.029Z,73.93
2023-11-24T12:22:03.661Z,72.33
2023-11-24T12:27:09.887Z,74.25
2023-11-24T12:32:15.454Z,74.52
2023-11-24T12:37:25.556Z,73.20
2023-11-24T12:42:31.831Z,73.46
2023-11-24T12:47:42.227Z,73.59
2023-11-24T12:52:54.301Z,73.93
2023-11-24T12:58:03.156Z,73.18
2023-11-24T13:03:10.542Z,73.58
2023-11-24T13:08:22.409Z,73.68
2023-11-24T13:13:29.598Z,74.13
2023-11-24T13:18:35.704Z,75.60
2023-11-24T13:23:42.440Z,75.34
2023-11-24T13:28:46.665Z,77.22
2023-11-24T13:33:50.724Z,78.29
2023-11-24T13:39:00.482Z,77.50
2023-11-24T13:44:05.455Z,76.60
2023-11-24T13:49:11.047Z,75.28
2023-11-24T13:54:17.164Z,77.96
2023-11-24T13:59:22.746Z,77.86
2023-11-24T14:04:28.336Z,77.40
2023-11-24T14:09:35.127Z,78.49
2023-11-24T14:14:39.560Z,77.83
2023-11-24T14:19:45.207Z,78.16
2023-11-24T14:24:50.929Z,78.63
2023-11-24T14:29:55.317Z,79.79
2023-11-24T14:35:01.178Z,78.55
2023-11-24T14:40:19.317Z,79.97
2023-11-24T14:45:27.233Z,81.08
2023-11-24T14:50:32.984Z,80.78
2023-11-24T14:55:38.386Z,83.16
2023-11-24T15:00:42.748Z,85.21
2023-11-24T15:05:53.632Z,85.33
2023-11-24T15:11:05.117Z,83.55
2023-11-24T15:16:13.643Z,84.36
2023-11-24T15:21:29.567Z,86.63
2023-11-24T15:26:37.415Z,86.11
2023-11-24T15:31:42.954Z,86.66
2023-11-24T15:36:47.327Z,88.21
2023-11-24T15:41:53.331Z,89.47
2023-11-24T15:46:57.562Z,90.87
2023-11-24T15:52:08.840Z,90.48
2023-11-24T15:57:20.007Z,89.00
2023-11-24T16:02:27.534Z,89.54
2023-11-24T16:07:38.386Z,90.37
2023-11-24T16:12:48.356Z,94.21
2023-11-24T16:17:52.990Z,90.60
2023-11-24T16:22:57.481Z,92.94
2023-11-24T16:28:04.484Z,93.79
2023-11-24T16:33:13.776Z,94.99
2023-11-24T16:38:20.884Z,96.23
2023-11-24T16:43:26.682Z,96.92
2023-11-24T16:48:30.739Z,94.37
2023-11-24T16:53:34.710Z,94.72
2023-11-24T16:58:40.188Z,96.07
2023-11-24T17:03:44.943Z,97.99
2023-11-24T17:08:49.192Z,99.06
2023-11-24T17:13:55.477Z,100.00
2023-11-24T17:19:02.417Z,100.00
2023-11-24T17:24:07.222Z,99.90
2023-11-24T17:29:16.713Z,99.90
2023-11-24T17:34:21.464Z,99.88
2023-11-24T17:39:25.681Z,100.00
2023-11-24T17:44:33.508Z,100.00
2023-11-24T17:49:38.697Z,100.00
2023-11-24T17:54:42.830Z,100.00
2023-11-24T17:59:51.182Z,100.00
2023-11-24T18:04:55.306Z,100.00
2023-11-24T18:09:59.399Z,100.00
2023-11-24T18:15:06.172Z,100.00
2023-11-24T18:20:14.602Z,100.00
2023-11-24T18:25:20.549Z,100.00
2023-11-24T18:30:25.853Z,100.00
2023-11-24T18:35:30.154Z,100.00
2023-11-24T18:40:34.898Z,100.00
2023-11-24T18:45:40.292Z,100.00
2023-11-24T18:50:46.884Z,100.00
2023-11-24T18:55:50.871Z,100.00
2023-11-24T19:00:56.346Z,100.00
2023-11-24T19:06:02.694Z,100.00
2023-11-24T19:11:07.551Z,100.00
2023-11-24T19:16:14.261Z,100.00
2023-11-24T19:21:19.583Z,100.00
2023-11-24T19:26:24.552Z,100.00
2023-11-24T19:31:30.420Z,100.00
2023-11-24T19:36:34.552Z,100.00
2023-11-24T19:41:38.654Z,100.00
2023-11-24T19:46:44.827Z,100.00
2023-11-24T19:51:49.059Z,100.00
2023-11-24T19:56:53.006Z,100.00
2023-11-24T20:01:59.984Z,100.00
2023-11-24T20:07:05.049Z,100.00
2023-11-24T20:12:10.810Z,100.00
2023-11-24T20:17:17.610Z,100.00
2023-11-24T20:22:21.737Z,100.00
2023-11-24T20:27:26.083Z,100.00
2023-11-24T20:32:33.410Z,100.00
2023-11-24T20:37:39.888Z,100.00
2023-11-24T20:42:44.156Z,100.00
2023-11-24T20:47:50.646Z,100.00
2023-11-24T20:52:55.116Z,100.00
2023-11-24T20:57:59.341Z,100.00
2023-11-24T21:03:05.264Z,100.00
2023-11-24T21:08:09.447Z,100.00
2023-11-24T21:13:13.624Z,100.00
2023-11-24T21:18:19.456Z,100.00
2023-11-24T21:23:24.354Z,100.00
2023-11-24T21:28:28.603Z,100.00
2023-11-24T21:33:34.159Z,100.00
2023-11-24T21:38:38.352Z,100.00
2023-11-24T21:43:42.436Z,100.00
2023-11-24T21:48:48.765Z,100.00
2023-11-24T21:53:52.845Z,100.00
2023-11-24T21:58:57.117Z,100.00
2023-11-24T22:04:04.437Z,100.00
2023-11-24T22:09:09.081Z,100.00
2023-11-24T22:14:13.233Z,100.00
2023-11-24T22:19:20.460Z,100.00
2023-11-24T22:24:25.171Z,100.00
2023-11-24T22:29:29.498Z,100.00
2023-11-24T22:34:34.934Z,100.00
2023-11-24T22:39:40.575Z,100.00
2023-11-24T22:44:46.356Z,100.00
2023-11-24T22:49:52.910Z,100.00
2023-11-24T22:54:57.171Z,100.00
2023-11-24T23:00:02.724Z,100.00
2023-11-24T23:05:09.869Z,100.00
2023-11-24T23:10:18.862Z,100.00
2023-11-24T23:15:25.619Z,100.00
2023-11-24T23:20:30.925Z,100.00
2023-11-24T23:25:34.978Z,100.00
2023-11-24T23:30:40.125Z,100.00
2023-11-24T23:35:47.073Z,100.00
2023-11-24T23:40:52.664Z,100.00
2023-11-24T23:45:56.732Z,100.00
2023-11-24T23:51:02.140Z,100.00
2023-11-24T23:56:07.192Z,100.00
